sensor_id;sensor_type;location;lat;lon;timestamp;temperature;humidity
46932;DHT22;32670;51.464;11.964;2022-11-15T00:00:52;23.70;44.40
46932;DHT22;32670;51.464;11.964;2022-11-15T00:03:21;23.70;44.40
46932;DHT22;32670;51.464;11.964;2022-11-15T00:05:47;23.70;44.40
46932;DHT22;32670;51.464;11.964;2022-11-15T00:08:13;23.70;44.40
46932;DHT22;32670;51.464;11.964;2022-11-15T00:10:39;23.70;44.30
46932;DHT22;32670;51.464;11.964;2022-11-15T00:13:10;23.70;44.30
46932;DHT22;32670;51.464;11.964;2022-11-15T00:15:40;23.70;44.30
46932;DHT22;32670;51.464;11.964;2022-11-15T00:18:10;23.70;44.30
46932;DHT22;32670;51.464;11.964;2022-11-15T00:20:37;23.70;44.30
46932;DHT22;32670;51.464;11.964;2022-11-15T00:23:04;23.70;44.30
46932;DHT22;32670;51.464;11.964;2022-11-15T00:25:29;23.70;44.30
46932;DHT22;32670;51.464;11.964;2022-11-15T00:27:56;23.70;44.20
46932;DHT22;32670;51.464;11.964;2022-11-15T00:30:22;23.70;44.20
46932;DHT22;32670;51.464;11.964;2022-11-15T00:32:48;23.70;44.30
46932;DHT22;32670;51.464;11.964;2022-11-15T00:35:13;23.70;44.20
46932;DHT22;32670;51.464;11.964;2022-11-15T00:37:39;23.70;43.70
46932;DHT22;32670;51.464;11.964;2022-11-15T00:40:05;23.70;44.20
46932;DHT22;32670;51.464;11.964;2022-11-15T00:42:30;23.70;44.20
46932;DHT22;32670;51.464;11.964;2022-11-15T00:44:56;23.70;44.10
46932;DHT22;32670;51.464;11.964;2022-11-15T00:47:21;23.70;44.10
46932;DHT22;32670;51.464;11.964;2022-11-15T00:49:47;23.70;44.10
46932;DHT22;32670;51.464;11.964;2022-11-15T00:52:12;23.70;44.10
46932;DHT22;32670;51.464;11.964;2022-11-15T00:54:38;23.70;44.10
46932;DHT22;32670;51.464;11.964;2022-11-15T00:57:03;23.70;44.10
46932;DHT22;32670;51.464;11.964;2022-11-15T00:59:29;23.70;44.10
46932;DHT22;32670;51.464;11.964;2022-11-15T01:01:54;23.70;44.00
46932;DHT22;32670;51.464;11.964;2022-11-15T01:04:20;23.70;44.10
46932;DHT22;32670;51.464;11.964;2022-11-15T01:06:45;23.70;44.00
46932;DHT22;32670;51.464;11.964;2022-11-15T01:09:11;23.70;44.00
46932;DHT22;32670;51.464;11.964;2022-11-15T01:11:36;23.70;44.00
46932;DHT22;32670;51.464;11.964;2022-11-15T01:14:02;23.70;44.00
46932;DHT22;32670;51.464;11.964;2022-11-15T01:16:27;23.70;44.00
46932;DHT22;32670;51.464;11.964;2022-11-15T01:18:53;23.70;44.00
46932;DHT22;32670;51.464;11.964;2022-11-15T01:21:19;23.70;44.00
46932;DHT22;32670;51.464;11.964;2022-11-15T01:23:45;23.70;43.90
46932;DHT22;32670;51.464;11.964;2022-11-15T01:26:12;23.70;43.80
46932;DHT22;32670;51.464;11.964;2022-11-15T01:28:40;23.70;43.90
46932;DHT22;32670;51.464;11.964;2022-11-15T01:31:14;23.70;43.80
46932;DHT22;32670;51.464;11.964;2022-11-15T01:33:41;23.70;43.70
46932;DHT22;32670;51.464;11.964;2022-11-15T01:36:19;23.70;43.70
46932;DHT22;32670;51.464;11.964;2022-11-15T01:38:45;23.70;43.70
46932;DHT22;32670;51.464;11.964;2022-11-15T01:41:18;23.70;43.70
46932;DHT22;32670;51.464;11.964;2022-11-15T01:43:46;23.70;43.70
46932;DHT22;32670;51.464;11.964;2022-11-15T01:48:47;23.70;43.70
46932;DHT22;32670;51.464;11.964;2022-11-15T01:51:16;23.70;43.80
46932;DHT22;32670;51.464;11.964;2022-11-15T01:53:46;23.70;43.70
46932;DHT22;32670;51.464;11.964;2022-11-15T01:56:18;23.70;43.70
46932;DHT22;32670;51.464;11.964;2022-11-15T01:58:45;23.70;43.70
46932;DHT22;32670;51.464;11.964;2022-11-15T02:01:12;23.70;43.70
46932;DHT22;32670;51.464;11.964;2022-11-15T02:03:49;23.70;43.80
46932;DHT22;32670;51.464;11.964;2022-11-15T02:06:16;23.70;43.70
46932;DHT22;32670;51.464;11.964;2022-11-15T02:08:42;23.70;43.80
46932;DHT22;32670;51.464;11.964;2022-11-15T02:11:08;23.70;43.70
46932;DHT22;32670;51.464;11.964;2022-11-15T02:13:35;23.70;43.70
46932;DHT22;32670;51.464;11.964;2022-11-15T02:16:22;23.70;43.70
46932;DHT22;32670;51.464;11.964;2022-11-15T02:22:30;23.60;43.70
46932;DHT22;32670;51.464;11.964;2022-11-15T02:30:38;23.70;43.70
46932;DHT22;32670;51.464;11.964;2022-11-15T02:33:28;23.70;43.80
46932;DHT22;32670;51.464;11.964;2022-11-15T02:36:00;23.70;43.70
46932;DHT22;32670;51.464;11.964;2022-11-15T02:38:46;23.60;43.70
46932;DHT22;32670;51.464;11.964;2022-11-15T02:41:18;23.70;43.80
46932;DHT22;32670;51.464;11.964;2022-11-15T02:43:55;23.70;43.70
46932;DHT22;32670;51.464;11.964;2022-11-15T02:46:44;23.70;43.80
46932;DHT22;32670;51.464;11.964;2022-11-15T02:49:32;23.60;43.70
46932;DHT22;32670;51.464;11.964;2022-11-15T02:51:58;23.70;43.70
46932;DHT22;32670;51.464;11.964;2022-11-15T02:54:26;23.70;43.70
46932;DHT22;32670;51.464;11.964;2022-11-15T02:56:57;23.60;43.70
46932;DHT22;32670;51.464;11.964;2022-11-15T03:13:24;23.70;43.70
46932;DHT22;32670;51.464;11.964;2022-11-15T03:18:37;23.70;43.70
46932;DHT22;32670;51.464;11.964;2022-11-15T03:21:06;23.60;43.70
46932;DHT22;32670;51.464;11.964;2022-11-15T03:23:33;23.70;43.70
46932;DHT22;32670;51.464;11.964;2022-11-15T03:26:00;23.60;43.60
46932;DHT22;32670;51.464;11.964;2022-11-15T03:28:41;23.70;43.70
46932;DHT22;32670;51.464;11.964;2022-11-15T03:31:09;23.70;44.20
46932;DHT22;32670;51.464;11.964;2022-11-15T03:34:03;23.60;43.60
46932;DHT22;32670;51.464;11.964;2022-11-15T03:36:32;23.70;43.60
46932;DHT22;32670;51.464;11.964;2022-11-15T03:39:02;23.70;43.70
46932;DHT22;32670;51.464;11.964;2022-11-15T03:41:35;23.70;43.60
46932;DHT22;32670;51.464;11.964;2022-11-15T03:47:03;23.60;43.60
46932;DHT22;32670;51.464;11.964;2022-11-15T03:49:38;23.60;43.50
46932;DHT22;32670;51.464;11.964;2022-11-15T03:52:06;23.70;43.60
46932;DHT22;32670;51.464;11.964;2022-11-15T03:54:31;23.70;43.60
46932;DHT22;32670;51.464;11.964;2022-11-15T03:56:57;23.70;43.60
46932;DHT22;32670;51.464;11.964;2022-11-15T03:59:23;23.70;43.60
46932;DHT22;32670;51.464;11.964;2022-11-15T04:01:48;23.70;43.60
46932;DHT22;32670;51.464;11.964;2022-11-15T04:04:14;23.60;43.50
46932;DHT22;32670;51.464;11.964;2022-11-15T04:06:40;23.70;43.60
46932;DHT22;32670;51.464;11.964;2022-11-15T04:09:05;23.60;43.60
46932;DHT22;32670;51.464;11.964;2022-11-15T04:11:31;23.70;43.60
46932;DHT22;32670;51.464;11.964;2022-11-15T04:13:56;23.70;43.60
46932;DHT22;32670;51.464;11.964;2022-11-15T04:16:22;23.70;43.60
46932;DHT22;32670;51.464;11.964;2022-11-15T04:18:47;23.70;43.60
46932;DHT22;32670;51.464;11.964;2022-11-15T04:21:33;23.70;43.60
46932;DHT22;32670;51.464;11.964;2022-11-15T04:24:17;23.60;43.50
46932;DHT22;32670;51.464;11.964;2022-11-15T04:26:42;23.70;43.60
46932;DHT22;32670;51.464;11.964;2022-11-15T04:29:08;23.70;43.60
46932;DHT22;32670;51.464;11.964;2022-11-15T04:31:52;23.60;43.50
46932;DHT22;32670;51.464;11.964;2022-11-15T04:34:18;23.60;43.50
46932;DHT22;32670;51.464;11.964;2022-11-15T04:36:43;23.60;43.50
46932;DHT22;32670;51.464;11.964;2022-11-15T04:39:27;23.60;43.50
46932;DHT22;32670;51.464;11.964;2022-11-15T04:41:53;23.60;43.50
46932;DHT22;32670;51.464;11.964;2022-11-15T04:44:18;23.60;43.50
46932;DHT22;32670;51.464;11.964;2022-11-15T04:46:44;23.60;43.50
46932;DHT22;32670;51.464;11.964;2022-11-15T04:49:09;23.60;43.50
46932;DHT22;32670;51.464;11.964;2022-11-15T04:51:35;23.60;43.50
46932;DHT22;32670;51.464;11.964;2022-11-15T04:54:00;23.70;43.60
46932;DHT22;32670;51.464;11.964;2022-11-15T04:56:26;23.70;43.60
46932;DHT22;32670;51.464;11.964;2022-11-15T04:58:51;23.70;43.60
46932;DHT22;32670;51.464;11.964;2022-11-15T05:01:17;23.60;43.50
46932;DHT22;32670;51.464;11.964;2022-11-15T05:03:43;23.70;43.60
46932;DHT22;32670;51.464;11.964;2022-11-15T05:06:49;23.60;43.50
46932;DHT22;32670;51.464;11.964;2022-11-15T05:09:16;23.70;43.60
46932;DHT22;32670;51.464;11.964;2022-11-15T05:11:42;23.60;43.50
46932;DHT22;32670;51.464;11.964;2022-11-15T05:14:08;23.70;43.60
46932;DHT22;32670;51.464;11.964;2022-11-15T05:16:33;23.70;43.60
46932;DHT22;32670;51.464;11.964;2022-11-15T05:18:59;23.70;43.60
46932;DHT22;32670;51.464;11.964;2022-11-15T05:21:24;23.70;43.60
46932;DHT22;32670;51.464;11.964;2022-11-15T05:23:50;23.70;43.60
46932;DHT22;32670;51.464;11.964;2022-11-15T05:26:17;23.70;43.50
46932;DHT22;32670;51.464;11.964;2022-11-15T05:28:43;23.60;43.50
46932;DHT22;32670;51.464;11.964;2022-11-15T05:31:11;23.70;43.60
46932;DHT22;32670;51.464;11.964;2022-11-15T05:33:38;23.60;43.50
46932;DHT22;32670;51.464;11.964;2022-11-15T05:38:31;23.70;43.50
46932;DHT22;32670;51.464;11.964;2022-11-15T05:40:57;23.70;43.50
46932;DHT22;32670;51.464;11.964;2022-11-15T05:43:23;23.70;43.50
46932;DHT22;32670;51.464;11.964;2022-11-15T05:45:49;23.70;43.50
46932;DHT22;32670;51.464;11.964;2022-11-15T05:48:15;23.60;43.50
46932;DHT22;32670;51.464;11.964;2022-11-15T05:50:42;23.60;43.50
46932;DHT22;32670;51.464;11.964;2022-11-15T05:53:10;23.60;43.50
46932;DHT22;32670;51.464;11.964;2022-11-15T05:55:38;23.60;43.50
46932;DHT22;32670;51.464;11.964;2022-11-15T05:58:04;23.70;43.60
46932;DHT22;32670;51.464;11.964;2022-11-15T06:00:30;23.60;43.60
46932;DHT22;32670;51.464;11.964;2022-11-15T06:02:55;23.60;43.60
46932;DHT22;32670;51.464;11.964;2022-11-15T06:05:21;23.70;43.70
46932;DHT22;32670;51.464;11.964;2022-11-15T06:07:46;23.60;43.60
46932;DHT22;32670;51.464;11.964;2022-11-15T06:10:12;23.60;43.60
46932;DHT22;32670;51.464;11.964;2022-11-15T06:12:37;23.70;43.70
46932;DHT22;32670;51.464;11.964;2022-11-15T06:15:03;23.60;43.70
46932;DHT22;32670;51.464;11.964;2022-11-15T06:17:29;23.60;43.70
46932;DHT22;32670;51.464;11.964;2022-11-15T06:19:54;23.70;43.90
46932;DHT22;32670;51.464;11.964;2022-11-15T06:22:20;23.60;43.70
46932;DHT22;32670;51.464;11.964;2022-11-15T06:24:45;23.60;42.10
46932;DHT22;32670;51.464;11.964;2022-11-15T06:27:11;23.50;36.70
46932;DHT22;32670;51.464;11.964;2022-11-15T06:29:37;23.20;36.00
46932;DHT22;32670;51.464;11.964;2022-11-15T06:32:03;23.20;37.80
46932;DHT22;32670;51.464;11.964;2022-11-15T06:34:28;23.30;40.30
46932;DHT22;32670;51.464;11.964;2022-11-15T06:36:54;23.40;40.30
46932;DHT22;32670;51.464;11.964;2022-11-15T06:39:19;23.40;40.30
46932;DHT22;32670;51.464;11.964;2022-11-15T06:41:45;23.50;40.50
46932;DHT22;32670;51.464;11.964;2022-11-15T06:44:11;23.50;40.70
46932;DHT22;32670;51.464;11.964;2022-11-15T06:46:36;23.60;40.90
46932;DHT22;32670;51.464;11.964;2022-11-15T06:49:02;23.60;41.00
46932;DHT22;32670;51.464;11.964;2022-11-15T06:51:27;23.50;41.20
46932;DHT22;32670;51.464;11.964;2022-11-15T06:53:53;23.60;41.40
46932;DHT22;32670;51.464;11.964;2022-11-15T06:56:19;23.60;41.50
46932;DHT22;32670;51.464;11.964;2022-11-15T06:58:44;23.60;41.90
46932;DHT22;32670;51.464;11.964;2022-11-15T07:01:11;23.60;42.30
46932;DHT22;32670;51.464;11.964;2022-11-15T07:03:39;23.70;41.90
46932;DHT22;32670;51.464;11.964;2022-11-15T07:06:05;23.70;42.50
46932;DHT22;32670;51.464;11.964;2022-11-15T07:08:31;23.70;42.50
46932;DHT22;32670;51.464;11.964;2022-11-15T07:11:01;23.80;42.70
46932;DHT22;32670;51.464;11.964;2022-11-15T07:13:29;23.80;42.80
46932;DHT22;32670;51.464;11.964;2022-11-15T07:15:55;23.90;42.90
46932;DHT22;32670;51.464;11.964;2022-11-15T07:18:20;23.90;43.00
46932;DHT22;32670;51.464;11.964;2022-11-15T07:20:46;24.00;43.00
46932;DHT22;32670;51.464;11.964;2022-11-15T07:23:11;24.00;43.30
46932;DHT22;32670;51.464;11.964;2022-11-15T07:25:37;24.00;43.00
46932;DHT22;32670;51.464;11.964;2022-11-15T07:28:03;24.10;43.00
46932;DHT22;32670;51.464;11.964;2022-11-15T07:30:28;24.10;42.60
46932;DHT22;32670;51.464;11.964;2022-11-15T07:32:58;24.20;42.60
46932;DHT22;32670;51.464;11.964;2022-11-15T07:35:25;24.20;42.70
46932;DHT22;32670;51.464;11.964;2022-11-15T07:37:58;24.10;42.70
46932;DHT22;32670;51.464;11.964;2022-11-15T07:40:26;24.10;42.70
46932;DHT22;32670;51.464;11.964;2022-11-15T07:42:52;24.10;42.90
46932;DHT22;32670;51.464;11.964;2022-11-15T07:45:17;24.10;42.90
46932;DHT22;32670;51.464;11.964;2022-11-15T07:47:46;24.10;42.90
46932;DHT22;32670;51.464;11.964;2022-11-15T07:50:11;24.00;43.20
46932;DHT22;32670;51.464;11.964;2022-11-15T07:52:37;24.10;44.00
46932;DHT22;32670;51.464;11.964;2022-11-15T07:55:03;24.10;44.00
46932;DHT22;32670;51.464;11.964;2022-11-15T07:57:29;24.00;44.20
46932;DHT22;32670;51.464;11.964;2022-11-15T07:59:55;24.10;44.20
46932;DHT22;32670;51.464;11.964;2022-11-15T08:02:20;24.10;44.00
46932;DHT22;32670;51.464;11.964;2022-11-15T08:04:46;24.10;43.80
46932;DHT22;32670;51.464;11.964;2022-11-15T08:07:12;24.10;43.70
46932;DHT22;32670;51.464;11.964;2022-11-15T08:09:37;24.10;43.60
46932;DHT22;32670;51.464;11.964;2022-11-15T08:12:03;24.10;43.50
46932;DHT22;32670;51.464;11.964;2022-11-15T08:14:28;24.10;43.50
46932;DHT22;32670;51.464;11.964;2022-11-15T08:16:54;24.10;43.50
46932;DHT22;32670;51.464;11.964;2022-11-15T08:19:20;24.10;43.50
46932;DHT22;32670;51.464;11.964;2022-11-15T08:21:46;24.10;43.50
46932;DHT22;32670;51.464;11.964;2022-11-15T08:24:11;24.10;43.50
46932;DHT22;32670;51.464;11.964;2022-11-15T08:26:37;24.10;43.60
46932;DHT22;32670;51.464;11.964;2022-11-15T08:29:03;24.10;43.60
46932;DHT22;32670;51.464;11.964;2022-11-15T08:31:28;24.10;43.60
46932;DHT22;32670;51.464;11.964;2022-11-15T08:33:54;24.10;43.60
46932;DHT22;32670;51.464;11.964;2022-11-15T08:36:19;24.10;43.60
46932;DHT22;32670;51.464;11.964;2022-11-15T08:38:45;24.20;43.70
46932;DHT22;32670;51.464;11.964;2022-11-15T08:41:25;24.10;43.70
46932;DHT22;32670;51.464;11.964;2022-11-15T08:43:52;24.10;43.70
46932;DHT22;32670;51.464;11.964;2022-11-15T08:46:17;24.20;43.70
46932;DHT22;32670;51.464;11.964;2022-11-15T08:48:44;24.20;42.70
46932;DHT22;32670;51.464;11.964;2022-11-15T08:51:09;24.20;42.70
46932;DHT22;32670;51.464;11.964;2022-11-15T08:53:35;24.20;43.20
46932;DHT22;32670;51.464;11.964;2022-11-15T08:56:01;24.20;43.20
46932;DHT22;32670;51.464;11.964;2022-11-15T08:58:26;24.20;43.30
46932;DHT22;32670;51.464;11.964;2022-11-15T09:00:52;24.20;43.40
46932;DHT22;32670;51.464;11.964;2022-11-15T09:03:17;24.20;43.50
46932;DHT22;32670;51.464;11.964;2022-11-15T09:05:43;24.20;43.50
46932;DHT22;32670;51.464;11.964;2022-11-15T09:08:08;24.20;43.50
46932;DHT22;32670;51.464;11.964;2022-11-15T09:10:34;24.30;43.70
46932;DHT22;32670;51.464;11.964;2022-11-15T09:12:59;24.30;43.60
46932;DHT22;32670;51.464;11.964;2022-11-15T09:15:25;24.30;43.80
46932;DHT22;32670;51.464;11.964;2022-11-15T09:17:51;24.30;43.80
46932;DHT22;32670;51.464;11.964;2022-11-15T09:20:18;24.30;44.00
46932;DHT22;32670;51.464;11.964;2022-11-15T09:22:44;24.30;43.80
46932;DHT22;32670;51.464;11.964;2022-11-15T09:25:09;24.40;43.90
46932;DHT22;32670;51.464;11.964;2022-11-15T09:27:35;24.40;43.90
46932;DHT22;32670;51.464;11.964;2022-11-15T09:30:00;24.40;44.10
46932;DHT22;32670;51.464;11.964;2022-11-15T09:32:28;24.40;43.00
46932;DHT22;32670;51.464;11.964;2022-11-15T09:34:55;24.40;42.70
46932;DHT22;32670;51.464;11.964;2022-11-15T09:37:21;24.40;42.80
46932;DHT22;32670;51.464;11.964;2022-11-15T09:39:46;24.40;43.10
46932;DHT22;32670;51.464;11.964;2022-11-15T09:45:33;24.50;43.40
46932;DHT22;32670;51.464;11.964;2022-11-15T09:50:51;24.50;43.40
46932;DHT22;32670;51.464;11.964;2022-11-15T09:53:39;24.50;43.60
46932;DHT22;32670;51.464;11.964;2022-11-15T09:56:28;24.50;43.80
46932;DHT22;32670;51.464;11.964;2022-11-15T10:02:09;24.50;43.70
46932;DHT22;32670;51.464;11.964;2022-11-15T10:04:38;24.60;43.70
46932;DHT22;32670;51.464;11.964;2022-11-15T10:07:22;24.60;42.60
46932;DHT22;32670;51.464;11.964;2022-11-15T10:12:32;24.60;43.50
46932;DHT22;32670;51.464;11.964;2022-11-15T10:15:08;24.60;43.70
46932;DHT22;32670;51.464;11.964;2022-11-15T10:18:25;24.60;43.90
46932;DHT22;32670;51.464;11.964;2022-11-15T10:23:11;24.70;44.20
46932;DHT22;32670;51.464;11.964;2022-11-15T10:25:37;24.70;44.20
46932;DHT22;32670;51.464;11.964;2022-11-15T10:28:27;24.70;44.00
46932;DHT22;32670;51.464;11.964;2022-11-15T10:30:56;24.80;44.20
46932;DHT22;32670;51.464;11.964;2022-11-15T10:38:56;24.80;44.00
46932;DHT22;32670;51.464;11.964;2022-11-15T10:44:21;24.80;44.20
46932;DHT22;32670;51.464;11.964;2022-11-15T10:49:27;24.80;44.30
46932;DHT22;32670;51.464;11.964;2022-11-15T10:52:12;24.80;44.20
46932;DHT22;32670;51.464;11.964;2022-11-15T10:57:25;24.80;44.40
46932;DHT22;32670;51.464;11.964;2022-11-15T11:02:37;24.90;44.40
46932;DHT22;32670;51.464;11.964;2022-11-15T11:05:06;24.90;44.40
46932;DHT22;32670;51.464;11.964;2022-11-15T11:07:34;24.90;44.40
46932;DHT22;32670;51.464;11.964;2022-11-15T11:10:17;24.80;44.60
46932;DHT22;32670;51.464;11.964;2022-11-15T11:12:42;24.80;44.50
46932;DHT22;32670;51.464;11.964;2022-11-15T11:15:13;24.80;44.30
46932;DHT22;32670;51.464;11.964;2022-11-15T11:17:56;24.90;44.40
46932;DHT22;32670;51.464;11.964;2022-11-15T11:23:18;24.80;41.50
46932;DHT22;32670;51.464;11.964;2022-11-15T11:31:34;24.70;38.60
46932;DHT22;32670;51.464;11.964;2022-11-15T11:34:29;24.70;39.50
46932;DHT22;32670;51.464;11.964;2022-11-15T11:37:04;24.80;41.00
46932;DHT22;32670;51.464;11.964;2022-11-15T11:47:39;24.80;42.40
46932;DHT22;32670;51.464;11.964;2022-11-15T11:50:18;24.80;42.40
46932;DHT22;32670;51.464;11.964;2022-11-15T11:53:09;24.80;42.50
46932;DHT22;32670;51.464;11.964;2022-11-15T11:55:45;24.80;42.70
46932;DHT22;32670;51.464;11.964;2022-11-15T12:01:24;24.70;34.70
46932;DHT22;32670;51.464;11.964;2022-11-15T12:09:58;24.70;40.20
46932;DHT22;32670;51.464;11.964;2022-11-15T12:12:52;24.70;41.00
46932;DHT22;32670;51.464;11.964;2022-11-15T12:15:37;24.70;41.20
46932;DHT22;32670;51.464;11.964;2022-11-15T12:18:04;24.70;41.40
46932;DHT22;32670;51.464;11.964;2022-11-15T12:20:35;24.80;41.70
46932;DHT22;32670;51.464;11.964;2022-11-15T12:25:48;24.80;41.90
46932;DHT22;32670;51.464;11.964;2022-11-15T12:28:38;24.80;42.10
46932;DHT22;32670;51.464;11.964;2022-11-15T12:31:14;24.80;42.70
46932;DHT22;32670;51.464;11.964;2022-11-15T12:33:47;24.80;42.00
46932;DHT22;32670;51.464;11.964;2022-11-15T12:38:59;24.90;42.30
46932;DHT22;32670;51.464;11.964;2022-11-15T12:41:27;24.90;42.70
46932;DHT22;32670;51.464;11.964;2022-11-15T12:43:54;24.90;42.60
46932;DHT22;32670;51.464;11.964;2022-11-15T13:02:40;24.90;43.30
46932;DHT22;32670;51.464;11.964;2022-11-15T13:17:55;24.90;43.50
46932;DHT22;32670;51.464;11.964;2022-11-15T13:20:27;24.90;43.60
46932;DHT22;32670;51.464;11.964;2022-11-15T13:23:12;25.00;43.50
46932;DHT22;32670;51.464;11.964;2022-11-15T13:31:40;25.00;43.30
46932;DHT22;32670;51.464;11.964;2022-11-15T13:33:40;24.90;43.30
46932;DHT22;32670;51.464;11.964;2022-11-15T13:36:26;25.00;43.50
46932;DHT22;32670;51.464;11.964;2022-11-15T13:39:03;25.00;43.50
46932;DHT22;32670;51.464;11.964;2022-11-15T13:41:35;24.90;43.40
46932;DHT22;32670;51.464;11.964;2022-11-15T13:44:02;24.90;43.40
46932;DHT22;32670;51.464;11.964;2022-11-15T13:46:32;25.00;43.70
46932;DHT22;32670;51.464;11.964;2022-11-15T13:49:03;24.90;43.90
46932;DHT22;32670;51.464;11.964;2022-11-15T13:51:46;24.90;44.00
46932;DHT22;32670;51.464;11.964;2022-11-15T13:56:42;25.00;44.30
46932;DHT22;32670;51.464;11.964;2022-11-15T14:02:18;24.90;44.20
46932;DHT22;32670;51.464;11.964;2022-11-15T14:04:56;24.90;43.80
46932;DHT22;32670;51.464;11.964;2022-11-15T14:07:24;24.90;43.80
46932;DHT22;32670;51.464;11.964;2022-11-15T14:09:51;24.90;43.70
46932;DHT22;32670;51.464;11.964;2022-11-15T14:12:31;24.90;43.70
46932;DHT22;32670;51.464;11.964;2022-11-15T14:15:18;24.90;43.80
46932;DHT22;32670;51.464;11.964;2022-11-15T14:17:44;24.90;43.90
46932;DHT22;32670;51.464;11.964;2022-11-15T14:22:58;24.80;43.90
46932;DHT22;32670;51.464;11.964;2022-11-15T14:25:29;24.90;44.00
46932;DHT22;32670;51.464;11.964;2022-11-15T14:28:12;24.80;43.90
46932;DHT22;32670;51.464;11.964;2022-11-15T14:30:40;24.80;43.90
46932;DHT22;32670;51.464;11.964;2022-11-15T14:35:50;24.80;44.00
46932;DHT22;32670;51.464;11.964;2022-11-15T14:38:15;24.80;44.00
46932;DHT22;32670;51.464;11.964;2022-11-15T14:40:42;24.80;44.00
46932;DHT22;32670;51.464;11.964;2022-11-15T14:43:11;24.80;44.00
46932;DHT22;32670;51.464;11.964;2022-11-15T14:45:38;24.80;44.00
46932;DHT22;32670;51.464;11.964;2022-11-15T14:48:04;24.80;44.00
46932;DHT22;32670;51.464;11.964;2022-11-15T14:50:29;24.80;44.00
46932;DHT22;32670;51.464;11.964;2022-11-15T14:52:56;24.70;43.90
46932;DHT22;32670;51.464;11.964;2022-11-15T14:55:33;24.70;43.90
46932;DHT22;32670;51.464;11.964;2022-11-15T14:58:02;24.70;44.00
46932;DHT22;32670;51.464;11.964;2022-11-15T15:00:29;24.70;44.00
46932;DHT22;32670;51.464;11.964;2022-11-15T15:02:54;24.70;43.90
46932;DHT22;32670;51.464;11.964;2022-11-15T15:07:47;24.70;43.90
46932;DHT22;32670;51.464;11.964;2022-11-15T15:10:14;24.70;43.90
46932;DHT22;32670;51.464;11.964;2022-11-15T15:12:39;24.70;44.00
46932;DHT22;32670;51.464;11.964;2022-11-15T15:15:06;24.70;43.90
46932;DHT22;32670;51.464;11.964;2022-11-15T15:17:31;24.70;43.90
46932;DHT22;32670;51.464;11.964;2022-11-15T15:19:57;24.70;44.00
46932;DHT22;32670;51.464;11.964;2022-11-15T15:22:22;24.60;43.90
46932;DHT22;32670;51.464;11.964;2022-11-15T15:24:51;24.60;43.80
46932;DHT22;32670;51.464;11.964;2022-11-15T15:27:17;24.60;43.80
46932;DHT22;32670;51.464;11.964;2022-11-15T15:29:42;24.60;43.70
46932;DHT22;32670;51.464;11.964;2022-11-15T15:32:09;24.60;43.60
46932;DHT22;32670;51.464;11.964;2022-11-15T15:34:35;24.60;44.20
46932;DHT22;32670;51.464;11.964;2022-11-15T15:37:22;24.60;44.20
46932;DHT22;32670;51.464;11.964;2022-11-15T15:39:58;24.60;44.40
46932;DHT22;32670;51.464;11.964;2022-11-15T15:42:24;24.60;44.50
46932;DHT22;32670;51.464;11.964;2022-11-15T15:44:50;24.60;44.70
46932;DHT22;32670;51.464;11.964;2022-11-15T15:47:19;24.60;44.80
46932;DHT22;32670;51.464;11.964;2022-11-15T15:49:45;24.60;44.90
46932;DHT22;32670;51.464;11.964;2022-11-15T15:52:11;24.60;44.40
46932;DHT22;32670;51.464;11.964;2022-11-15T15:54:37;24.60;44.20
46932;DHT22;32670;51.464;11.964;2022-11-15T15:57:03;24.60;44.40
46932;DHT22;32670;51.464;11.964;2022-11-15T15:59:30;24.60;44.60
46932;DHT22;32670;51.464;11.964;2022-11-15T16:01:55;24.60;44.70
46932;DHT22;32670;51.464;11.964;2022-11-15T16:04:21;24.60;44.80
46932;DHT22;32670;51.464;11.964;2022-11-15T16:06:47;24.60;45.00
46932;DHT22;32670;51.464;11.964;2022-11-15T16:09:18;24.60;45.10
46932;DHT22;32670;51.464;11.964;2022-11-15T16:11:45;24.60;45.30
46932;DHT22;32670;51.464;11.964;2022-11-15T16:14:11;24.60;45.40
46932;DHT22;32670;51.464;11.964;2022-11-15T16:16:36;24.60;44.60
46932;DHT22;32670;51.464;11.964;2022-11-15T16:19:03;24.60;44.50
46932;DHT22;32670;51.464;11.964;2022-11-15T16:21:29;24.60;44.50
46932;DHT22;32670;51.464;11.964;2022-11-15T16:23:54;24.60;44.60
46932;DHT22;32670;51.464;11.964;2022-11-15T16:26:28;24.60;44.50
46932;DHT22;32670;51.464;11.964;2022-11-15T16:28:54;24.60;44.40
46932;DHT22;32670;51.464;11.964;2022-11-15T16:31:20;24.60;44.40
46932;DHT22;32670;51.464;11.964;2022-11-15T16:33:48;24.60;44.50
46932;DHT22;32670;51.464;11.964;2022-11-15T16:36:22;24.60;44.50
46932;DHT22;32670;51.464;11.964;2022-11-15T16:38:48;24.60;44.60
46932;DHT22;32670;51.464;11.964;2022-11-15T16:41:14;24.60;44.60
46932;DHT22;32670;51.464;11.964;2022-11-15T16:43:40;24.60;44.60
46932;DHT22;32670;51.464;11.964;2022-11-15T16:46:14;24.60;44.70
46932;DHT22;32670;51.464;11.964;2022-11-15T16:48:40;24.60;44.70
46932;DHT22;32670;51.464;11.964;2022-11-15T16:51:06;24.60;45.00
46932;DHT22;32670;51.464;11.964;2022-11-15T16:53:32;24.60;45.90
46932;DHT22;32670;51.464;11.964;2022-11-15T16:55:57;24.50;45.70
46932;DHT22;32670;51.464;11.964;2022-11-15T16:58:23;24.60;46.20
46932;DHT22;32670;51.464;11.964;2022-11-15T17:00:53;24.60;46.50
46932;DHT22;32670;51.464;11.964;2022-11-15T17:03:20;24.60;46.50
46932;DHT22;32670;51.464;11.964;2022-11-15T17:05:46;24.60;46.50
46932;DHT22;32670;51.464;11.964;2022-11-15T17:08:11;24.60;46.50
46932;DHT22;32670;51.464;11.964;2022-11-15T17:10:38;24.60;46.60
46932;DHT22;32670;51.464;11.964;2022-11-15T17:13:13;24.60;46.50
46932;DHT22;32670;51.464;11.964;2022-11-15T17:15:39;24.60;46.60
46932;DHT22;32670;51.464;11.964;2022-11-15T17:18:05;24.60;46.50
46932;DHT22;32670;51.464;11.964;2022-11-15T17:20:31;24.60;46.40
46932;DHT22;32670;51.464;11.964;2022-11-15T17:22:56;24.60;46.60
46932;DHT22;32670;51.464;11.964;2022-11-15T17:25:22;24.60;46.50
46932;DHT22;32670;51.464;11.964;2022-11-15T17:27:48;24.60;47.00
46932;DHT22;32670;51.464;11.964;2022-11-15T17:30:15;24.60;46.50
46932;DHT22;32670;51.464;11.964;2022-11-15T17:32:41;24.60;46.60
46932;DHT22;32670;51.464;11.964;2022-11-15T17:35:08;24.60;46.70
46932;DHT22;32670;51.464;11.964;2022-11-15T17:37:35;24.60;46.60
46932;DHT22;32670;51.464;11.964;2022-11-15T17:40:01;24.60;46.60
46932;DHT22;32670;51.464;11.964;2022-11-15T17:42:26;24.60;46.60
46932;DHT22;32670;51.464;11.964;2022-11-15T17:44:52;24.60;46.20
46932;DHT22;32670;51.464;11.964;2022-11-15T17:47:18;24.60;46.50
46932;DHT22;32670;51.464;11.964;2022-11-15T17:49:43;24.60;46.70